sensor_id;sensor_type;location;lat;lon;timestamp;P1;durP1;ratioP1;P2;durP2;ratioP2
45762;SDS011;37512;52.408;13.356;2023-06-22T00:03:44;21.42;;;14.57;;
45762;SDS011;37512;52.408;13.356;2023-06-22T00:07:46;17.17;;;14.13;;
45762;SDS011;37512;52.408;13.356;2023-06-22T00:11:47;19.40;;;13.57;;
45762;SDS011;37512;52.408;13.356;2023-06-22T00:15:49;16.23;;;12.88;;
45762;SDS011;37512;52.408;13.356;2023-06-22T00:19:53;17.77;;;13.23;;
45762;SDS011;37512;52.408;13.356;2023-06-22T00:23:56;15.57;;;13.10;;
45762;SDS011;37512;52.408;13.356;2023-06-22T00:27:58;14.75;;;12.20;;
45762;SDS011;37512;52.408;13.356;2023-06-22T00:31:59;14.48;;;12.50;;
45762;SDS011;37512;52.408;13.356;2023-06-22T00:36:01;15.48;;;12.60;;
45762;SDS011;37512;52.408;13.356;2023-06-22T00:40:04;15.18;;;12.20;;
45762;SDS011;37512;52.408;13.356;2023-06-22T00:44:06;13.15;;;10.90;;
45762;SDS011;37512;52.408;13.356;2023-06-22T00:48:08;13.05;;;11.65;;
45762;SDS011;37512;52.408;13.356;2023-06-22T00:52:10;14.70;;;11.73;;
45762;SDS011;37512;52.408;13.356;2023-06-22T00:56:15;13.23;;;11.45;;
45762;SDS011;37512;52.408;13.356;2023-06-22T01:00:20;13.77;;;11.20;;
45762;SDS011;37512;52.408;13.356;2023-06-22T01:04:33;14.43;;;11.73;;
45762;SDS011;37512;52.408;13.356;2023-06-22T01:08:39;13.52;;;11.68;;
45762;SDS011;37512;52.408;13.356;2023-06-22T01:12:58;12.75;;;11.10;;
45762;SDS011;37512;52.408;13.356;2023-06-22T01:17:05;13.52;;;11.38;;
45762;SDS011;37512;52.408;13.356;2023-06-22T01:21:11;13.43;;;10.73;;
45762;SDS011;37512;52.408;13.356;2023-06-22T01:25:26;15.20;;;11.13;;
45762;SDS011;37512;52.408;13.356;2023-06-22T01:29:34;14.90;;;10.23;;
45762;SDS011;37512;52.408;13.356;2023-06-22T01:33:39;13.80;;;9.35;;
45762;SDS011;37512;52.408;13.356;2023-06-22T01:37:43;11.73;;;10.32;;
45762;SDS011;37512;52.408;13.356;2023-06-22T01:41:45;12.77;;;10.57;;
45762;SDS011;37512;52.408;13.356;2023-06-22T01:45:49;16.42;;;11.43;;
45762;SDS011;37512;52.408;13.356;2023-06-22T01:49:52;11.40;;;10.20;;
45762;SDS011;37512;52.408;13.356;2023-06-22T01:53:54;13.95;;;11.32;;
45762;SDS011;37512;52.408;13.356;2023-06-22T01:57:55;13.40;;;11.65;;
45762;SDS011;37512;52.408;13.356;2023-06-22T02:02:04;13.13;;;10.90;;
45762;SDS011;37512;52.408;13.356;2023-06-22T02:06:11;15.48;;;10.35;;
45762;SDS011;37512;52.408;13.356;2023-06-22T02:10:22;11.70;;;9.77;;
45762;SDS011;37512;52.408;13.356;2023-06-22T02:14:25;11.40;;;10.18;;
45762;SDS011;37512;52.408;13.356;2023-06-22T02:18:28;14.70;;;11.88;;
45762;SDS011;37512;52.408;13.356;2023-06-22T02:22:29;11.40;;;10.15;;
45762;SDS011;37512;52.408;13.356;2023-06-22T02:26:31;13.23;;;11.02;;
45762;SDS011;37512;52.408;13.356;2023-06-22T02:30:35;14.82;;;11.02;;
45762;SDS011;37512;52.408;13.356;2023-06-22T02:34:37;14.35;;;11.05;;
45762;SDS011;37512;52.408;13.356;2023-06-22T02:38:40;14.18;;;11.52;;
45762;SDS011;37512;52.408;13.356;2023-06-22T02:42:47;16.17;;;11.20;;
45762;SDS011;37512;52.408;13.356;2023-06-22T02:46:48;12.57;;;10.80;;
45762;SDS011;37512;52.408;13.356;2023-06-22T02:50:50;14.38;;;12.23;;
45762;SDS011;37512;52.408;13.356;2023-06-22T02:54:51;13.93;;;11.77;;
45762;SDS011;37512;52.408;13.356;2023-06-22T02:58:53;14.52;;;12.60;;
45762;SDS011;37512;52.408;13.356;2023-06-22T03:02:55;14.77;;;12.07;;
45762;SDS011;37512;52.408;13.356;2023-06-22T03:06:57;12.75;;;11.45;;
45762;SDS011;37512;52.408;13.356;2023-06-22T03:11:02;16.88;;;12.50;;
45762;SDS011;37512;52.408;13.356;2023-06-22T03:15:05;13.60;;;12.20;;
45762;SDS011;37512;52.408;13.356;2023-06-22T03:19:07;14.82;;;12.48;;
45762;SDS011;37512;52.408;13.356;2023-06-22T03:23:09;17.08;;;12.57;;
45762;SDS011;37512;52.408;13.356;2023-06-22T03:27:10;14.80;;;11.93;;
45762;SDS011;37512;52.408;13.356;2023-06-22T03:31:12;15.05;;;13.15;;
45762;SDS011;37512;52.408;13.356;2023-06-22T03:35:13;13.43;;;12.02;;
45762;SDS011;37512;52.408;13.356;2023-06-22T03:39:15;16.90;;;12.95;;
45762;SDS011;37512;52.408;13.356;2023-06-22T03:43:16;14.80;;;12.88;;
45762;SDS011;37512;52.408;13.356;2023-06-22T03:47:18;16.23;;;13.95;;
45762;SDS011;37512;52.408;13.356;2023-06-22T03:51:19;15.70;;;13.23;;
45762;SDS011;37512;52.408;13.356;2023-06-22T03:55:21;16.30;;;12.95;;
45762;SDS011;37512;52.408;13.356;2023-06-22T03:59:23;16.38;;;12.50;;
45762;SDS011;37512;52.408;13.356;2023-06-22T04:03:25;16.10;;;12.13;;
45762;SDS011;37512;52.408;13.356;2023-06-22T04:07:26;15.07;;;12.38;;
45762;SDS011;37512;52.408;13.356;2023-06-22T04:11:28;17.98;;;12.85;;
45762;SDS011;37512;52.408;13.356;2023-06-22T04:15:29;17.00;;;12.60;;
45762;SDS011;37512;52.408;13.356;2023-06-22T04:19:31;19.33;;;13.50;;
45762;SDS011;37512;52.408;13.356;2023-06-22T04:23:32;14.73;;;11.75;;
45762;SDS011;37512;52.408;13.356;2023-06-22T04:27:34;14.80;;;11.15;;
45762;SDS011;37512;52.408;13.356;2023-06-22T04:31:41;13.93;;;11.43;;
45762;SDS011;37512;52.408;13.356;2023-06-22T04:35:45;14.80;;;10.75;;
45762;SDS011;37512;52.408;13.356;2023-06-22T04:39:46;14.52;;;10.85;;
45762;SDS011;37512;52.408;13.356;2023-06-22T04:43:48;13.30;;;11.43;;
45762;SDS011;37512;52.408;13.356;2023-06-22T04:47:55;14.77;;;10.98;;
45762;SDS011;37512;52.408;13.356;2023-06-22T04:51:56;18.60;;;11.10;;
45762;SDS011;37512;52.408;13.356;2023-06-22T04:55:58;12.98;;;11.00;;
45762;SDS011;37512;52.408;13.356;2023-06-22T04:59:59;11.15;;;9.73;;
45762;SDS011;37512;52.408;13.356;2023-06-22T05:04:13;15.43;;;10.15;;
45762;SDS011;37512;52.408;13.356;2023-06-22T05:08:15;12.85;;;8.95;;
45762;SDS011;37512;52.408;13.356;2023-06-22T05:12:17;10.45;;;8.65;;
45762;SDS011;37512;52.408;13.356;2023-06-22T05:16:19;8.82;;;7.93;;
45762;SDS011;37512;52.408;13.356;2023-06-22T05:20:27;12.40;;;8.48;;
45762;SDS011;37512;52.408;13.356;2023-06-22T05:24:29;11.65;;;9.13;;
45762;SDS011;37512;52.408;13.356;2023-06-22T05:28:31;9.13;;;8.23;;
45762;SDS011;37512;52.408;13.356;2023-06-22T05:32:34;12.98;;;8.98;;
45762;SDS011;37512;52.408;13.356;2023-06-22T05:36:36;13.50;;;8.68;;
45762;SDS011;37512;52.408;13.356;2023-06-22T05:40:38;8.48;;;7.43;;
45762;SDS011;37512;52.408;13.356;2023-06-22T05:44:39;9.13;;;8.18;;
45762;SDS011;37512;52.408;13.356;2023-06-22T05:48:41;12.15;;;8.80;;
45762;SDS011;37512;52.408;13.356;2023-06-22T05:52:43;10.48;;;8.52;;
45762;SDS011;37512;52.408;13.356;2023-06-22T05:56:44;11.05;;;8.27;;
45762;SDS011;37512;52.408;13.356;2023-06-22T06:00:46;13.52;;;8.45;;
45762;SDS011;37512;52.408;13.356;2023-06-22T06:04:48;9.52;;;8.07;;
45762;SDS011;37512;52.408;13.356;2023-06-22T06:08:52;8.75;;;7.50;;
45762;SDS011;37512;52.408;13.356;2023-06-22T06:12:53;12.93;;;6.88;;
45762;SDS011;37512;52.408;13.356;2023-06-22T06:16:55;8.40;;;6.90;;
45762;SDS011;37512;52.408;13.356;2023-06-22T06:20:56;8.25;;;6.55;;
45762;SDS011;37512;52.408;13.356;2023-06-22T06:24:58;8.65;;;5.65;;
45762;SDS011;37512;52.408;13.356;2023-06-22T06:28:59;7.93;;;6.25;;
45762;SDS011;37512;52.408;13.356;2023-06-22T06:33:01;5.97;;;4.68;;
45762;SDS011;37512;52.408;13.356;2023-06-22T06:37:03;7.57;;;5.03;;
45762;SDS011;37512;52.408;13.356;2023-06-22T06:41:04;6.47;;;4.60;;
45762;SDS011;37512;52.408;13.356;2023-06-22T06:45:06;9.27;;;4.38;;
45762;SDS011;37512;52.408;13.356;2023-06-22T06:49:11;6.85;;;4.07;;
45762;SDS011;37512;52.408;13.356;2023-06-22T06:53:14;8.40;;;4.22;;
45762;SDS011;37512;52.408;13.356;2023-06-22T06:57:16;5.65;;;4.28;;
45762;SDS011;37512;52.408;13.356;2023-06-22T07:01:17;7.95;;;4.35;;
45762;SDS011;37512;52.408;13.356;2023-06-22T07:05:22;4.38;;;3.97;;
45762;SDS011;37512;52.408;13.356;2023-06-22T07:09:24;4.57;;;3.53;;
45762;SDS011;37512;52.408;13.356;2023-06-22T07:13:25;5.97;;;3.70;;
45762;SDS011;37512;52.408;13.356;2023-06-22T07:17:27;4.18;;;3.78;;
45762;SDS011;37512;52.408;13.356;2023-06-22T07:21:28;5.10;;;3.80;;
45762;SDS011;37512;52.408;13.356;2023-06-22T07:25:30;8.60;;;4.13;;
45762;SDS011;37512;52.408;13.356;2023-06-22T07:29:31;8.32;;;4.10;;
45762;SDS011;37512;52.408;13.356;2023-06-22T07:33:36;5.47;;;3.70;;
45762;SDS011;37512;52.408;13.356;2023-06-22T07:37:43;5.18;;;3.30;;
45762;SDS011;37512;52.408;13.356;2023-06-22T07:41:45;5.93;;;3.38;;
45762;SDS011;37512;52.408;13.356;2023-06-22T07:45:50;5.03;;;2.83;;
45762;SDS011;37512;52.408;13.356;2023-06-22T07:49:55;5.68;;;3.85;;
45762;SDS011;37512;52.408;13.356;2023-06-22T07:53:59;5.75;;;3.83;;
45762;SDS011;37512;52.408;13.356;2023-06-22T07:58:01;4.90;;;3.78;;
45762;SDS011;37512;52.408;13.356;2023-06-22T08:02:02;3.45;;;2.80;;
45762;SDS011;37512;52.408;13.356;2023-06-22T08:06:05;4.82;;;3.35;;
45762;SDS011;37512;52.408;13.356;2023-06-22T08:10:10;4.97;;;3.67;;
45762;SDS011;37512;52.408;13.356;2023-06-22T08:14:12;4.70;;;3.35;;
45762;SDS011;37512;52.408;13.356;2023-06-22T08:18:14;4.03;;;3.45;;
45762;SDS011;37512;52.408;13.356;2023-06-22T08:22:16;4.13;;;3.33;;
45762;SDS011;37512;52.408;13.356;2023-06-22T08:26:18;5.18;;;3.50;;
45762;SDS011;37512;52.408;13.356;2023-06-22T08:30:19;6.35;;;3.50;;
45762;SDS011;37512;52.408;13.356;2023-06-22T08:34:21;5.03;;;2.88;;
45762;SDS011;37512;52.408;13.356;2023-06-22T08:38:24;4.95;;;3.63;;
45762;SDS011;37512;52.408;13.356;2023-06-22T08:42:26;4.82;;;3.10;;
45762;SDS011;37512;52.408;13.356;2023-06-22T08:46:28;4.38;;;2.80;;
45762;SDS011;37512;52.408;13.356;2023-06-22T08:50:34;5.13;;;3.83;;
45762;SDS011;37512;52.408;13.356;2023-06-22T08:54:36;6.28;;;2.70;;
45762;SDS011;37512;52.408;13.356;2023-06-22T08:58:37;4.38;;;2.80;;
45762;SDS011;37512;52.408;13.356;2023-06-22T09:02:38;3.13;;;2.53;;
45762;SDS011;37512;52.408;13.356;2023-06-22T09:06:42;6.25;;;3.85;;
45762;SDS011;37512;52.408;13.356;2023-06-22T09:10:46;7.63;;;4.85;;
45762;SDS011;37512;52.408;13.356;2023-06-22T09:14:47;4.13;;;2.80;;
45762;SDS011;37512;52.408;13.356;2023-06-22T09:18:49;4.85;;;3.30;;
45762;SDS011;37512;52.408;13.356;2023-06-22T09:22:50;4.38;;;3.30;;
45762;SDS011;37512;52.408;13.356;2023-06-22T09:26:52;7.15;;;4.20;;
45762;SDS011;37512;52.408;13.356;2023-06-22T09:30:53;4.28;;;2.90;;
45762;SDS011;37512;52.408;13.356;2023-06-22T09:35:03;5.10;;;3.33;;
45762;SDS011;37512;52.408;13.356;2023-06-22T09:39:08;4.60;;;2.97;;
45762;SDS011;37512;52.408;13.356;2023-06-22T09:43:09;4.22;;;3.00;;
45762;SDS011;37512;52.408;13.356;2023-06-22T09:47:11;5.18;;;3.50;;
45762;SDS011;37512;52.408;13.356;2023-06-22T09:51:12;7.63;;;3.85;;
45762;SDS011;37512;52.408;13.356;2023-06-22T09:55:16;3.75;;;3.08;;
45762;SDS011;37512;52.408;13.356;2023-06-22T09:59:18;4.13;;;3.03;;
45762;SDS011;37512;52.408;13.356;2023-06-22T10:03:20;4.22;;;3.13;;
45762;SDS011;37512;52.408;13.356;2023-06-22T10:07:22;4.80;;;2.63;;
45762;SDS011;37512;52.408;13.356;2023-06-22T10:11:23;3.72;;;3.17;;
45762;SDS011;37512;52.408;13.356;2023-06-22T10:15:30;5.38;;;3.22;;
45762;SDS011;37512;52.408;13.356;2023-06-22T10:19:32;4.32;;;3.15;;
45762;SDS011;37512;52.408;13.356;2023-06-22T10:23:33;4.65;;;2.67;;
45762;SDS011;37512;52.408;13.356;2023-06-22T10:27:35;3.47;;;2.72;;
45762;SDS011;37512;52.408;13.356;2023-06-22T10:31:36;5.13;;;3.38;;
45762;SDS011;37512;52.408;13.356;2023-06-22T10:35:39;4.30;;;2.90;;
45762;SDS011;37512;52.408;13.356;2023-06-22T10:39:40;4.82;;;2.67;;
45762;SDS011;37512;52.408;13.356;2023-06-22T10:43:42;5.68;;;3.17;;
45762;SDS011;37512;52.408;13.356;2023-06-22T10:47:43;4.45;;;3.08;;
45762;SDS011;37512;52.408;13.356;2023-06-22T10:51:45;4.30;;;2.55;;
45762;SDS011;37512;52.408;13.356;2023-06-22T10:55:47;5.97;;;2.83;;
45762;SDS011;37512;52.408;13.356;2023-06-22T10:59:56;4.10;;;2.90;;
45762;SDS011;37512;52.408;13.356;2023-06-22T11:03:58;4.05;;;2.72;;
45762;SDS011;37512;52.408;13.356;2023-06-22T11:08:00;3.35;;;2.97;;
45762;SDS011;37512;52.408;13.356;2023-06-22T11:12:02;3.90;;;2.70;;
45762;SDS011;37512;52.408;13.356;2023-06-22T11:16:04;4.57;;;3.17;;
45762;SDS011;37512;52.408;13.356;2023-06-22T11:20:05;4.95;;;3.20;;
45762;SDS011;37512;52.408;13.356;2023-06-22T11:24:14;3.40;;;3.00;;
45762;SDS011;37512;52.408;13.356;2023-06-22T11:28:15;5.20;;;2.72;;
45762;SDS011;37512;52.408;13.356;2023-06-22T11:32:17;4.38;;;2.92;;
45762;SDS011;37512;52.408;13.356;2023-06-22T11:36:18;3.13;;;2.80;;
45762;SDS011;37512;52.408;13.356;2023-06-22T11:40:20;3.53;;;3.20;;
45762;SDS011;37512;52.408;13.356;2023-06-22T11:44:22;3.13;;;2.75;;
45762;SDS011;37512;52.408;13.356;2023-06-22T11:48:24;4.53;;;3.15;;
45762;SDS011;37512;52.408;13.356;2023-06-22T11:52:26;4.65;;;4.03;;
45762;SDS011;37512;52.408;13.356;2023-06-22T11:56:28;4.10;;;3.70;;
45762;SDS011;37512;52.408;13.356;2023-06-22T12:00:30;3.40;;;2.90;;
45762;SDS011;37512;52.408;13.356;2023-06-22T12:04:42;3.63;;;3.05;;
45762;SDS011;37512;52.408;13.356;2023-06-22T12:08:43;3.55;;;2.85;;
45762;SDS011;37512;52.408;13.356;2023-06-22T12:12:45;4.15;;;3.13;;
45762;SDS011;37512;52.408;13.356;2023-06-22T12:16:46;4.72;;;3.63;;
45762;SDS011;37512;52.408;13.356;2023-06-22T12:20:48;3.72;;;3.28;;
45762;SDS011;37512;52.408;13.356;2023-06-22T12:24:49;4.47;;;3.00;;
45762;SDS011;37512;52.408;13.356;2023-06-22T12:28:51;4.32;;;3.03;;
45762;SDS011;37512;52.408;13.356;2023-06-22T12:32:52;4.32;;;2.88;;
45762;SDS011;37512;52.408;13.356;2023-06-22T12:36:56;5.47;;;3.45;;
45762;SDS011;37512;52.408;13.356;2023-06-22T12:40:58;3.53;;;3.17;;
45762;SDS011;37512;52.408;13.356;2023-06-22T12:44:59;4.07;;;3.17;;
45762;SDS011;37512;52.408;13.356;2023-06-22T12:49:01;5.93;;;3.03;;
45762;SDS011;37512;52.408;13.356;2023-06-22T12:53:02;4.72;;;3.40;;
45762;SDS011;37512;52.408;13.356;2023-06-22T12:57:05;6.38;;;3.55;;
45762;SDS011;37512;52.408;13.356;2023-06-22T13:01:07;5.05;;;3.72;;
45762;SDS011;37512;52.408;13.356;2023-06-22T13:05:09;3.78;;;3.42;;
45762;SDS011;37512;52.408;13.356;2023-06-22T13:09:10;4.13;;;3.38;;
45762;SDS011;37512;52.408;13.356;2023-06-22T13:13:21;4.18;;;3.05;;
45762;SDS011;37512;52.408;13.356;2023-06-22T13:17:22;3.85;;;3.35;;
45762;SDS011;37512;52.408;13.356;2023-06-22T13:21:24;3.92;;;3.30;;
45762;SDS011;37512;52.408;13.356;2023-06-22T13:25:25;3.85;;;3.50;;
45762;SDS011;37512;52.408;13.356;2023-06-22T13:29:28;4.43;;;3.42;;
45762;SDS011;37512;52.408;13.356;2023-06-22T13:33:30;3.88;;;3.47;;
45762;SDS011;37512;52.408;13.356;2023-06-22T13:37:31;4.28;;;3.20;;
45762;SDS011;37512;52.408;13.356;2023-06-22T13:41:33;3.70;;;3.40;;
45762;SDS011;37512;52.408;13.356;2023-06-22T13:45:35;4.07;;;3.60;;
45762;SDS011;37512;52.408;13.356;2023-06-22T13:49:36;4.00;;;3.55;;
45762;SDS011;37512;52.408;13.356;2023-06-22T13:53:38;8.70;;;3.55;;
45762;SDS011;37512;52.408;13.356;2023-06-22T13:57:39;5.30;;;3.40;;
45762;SDS011;37512;52.408;13.356;2023-06-22T14:01:42;5.78;;;3.35;;
45762;SDS011;37512;52.408;13.356;2023-06-22T14:05:44;6.43;;;4.10;;
45762;SDS011;37512;52.408;13.356;2023-06-22T14:09:46;4.05;;;3.22;;
45762;SDS011;37512;52.408;13.356;2023-06-22T14:13:47;4.70;;;3.33;;
45762;SDS011;37512;52.408;13.356;2023-06-22T14:17:49;4.63;;;3.55;;
45762;SDS011;37512;52.408;13.356;2023-06-22T14:21:51;3.45;;;3.13;;
45762;SDS011;37512;52.408;13.356;2023-06-22T14:25:53;3.50;;;3.20;;
45762;SDS011;37512;52.408;13.356;2023-06-22T14:29:54;9.35;;;3.75;;
45762;SDS011;37512;52.408;13.356;2023-06-22T14:34:10;3.45;;;3.15;;
45762;SDS011;37512;52.408;13.356;2023-06-22T14:38:15;4.82;;;3.45;;
45762;SDS011;37512;52.408;13.356;2023-06-22T14:42:24;5.43;;;3.72;;
45762;SDS011;37512;52.408;13.356;2023-06-22T14:46:37;4.68;;;3.50;;
45762;SDS011;37512;52.408;13.356;2023-06-22T14:50:38;3.13;;;2.80;;
45762;SDS011;37512;52.408;13.356;2023-06-22T14:54:40;3.42;;;3.13;;
45762;SDS011;37512;52.408;13.356;2023-06-22T14:58:41;4.95;;;3.78;;
45762;SDS011;37512;52.408;13.356;2023-06-22T15:02:48;4.00;;;3.53;;
45762;SDS011;37512;52.408;13.356;2023-06-22T15:06:50;5.45;;;4.70;;
45762;SDS011;37512;52.408;13.356;2023-06-22T15:10:51;4.50;;;3.58;;
45762;SDS011;37512;52.408;13.356;2023-06-22T15:14:53;3.88;;;3.47;;
45762;SDS011;37512;52.408;13.356;2023-06-22T15:18:55;4.75;;;3.10;;
45762;SDS011;37512;52.408;13.356;2023-06-22T15:22:56;3.33;;;3.03;;
45762;SDS011;37512;52.408;13.356;2023-06-22T15:26:58;4.63;;;3.78;;
45762;SDS011;37512;52.408;13.356;2023-06-22T15:31:00;3.55;;;3.25;;
45762;SDS011;37512;52.408;13.356;2023-06-22T15:35:02;5.03;;;3.45;;
45762;SDS011;37512;52.408;13.356;2023-06-22T15:39:04;4.63;;;3.83;;
45762;SDS011;37512;52.408;13.356;2023-06-22T15:43:05;4.70;;;3.55;;
45762;SDS011;37512;52.408;13.356;2023-06-22T15:47:07;6.53;;;4.07;;
45762;SDS011;37512;52.408;13.356;2023-06-22T15:51:08;6.85;;;3.58;;
45762;SDS011;37512;52.408;13.356;2023-06-22T15:55:10;5.20;;;4.10;;
45762;SDS011;37512;52.408;13.356;2023-06-22T15:59:11;4.43;;;3.58;;
45762;SDS011;37512;52.408;13.356;2023-06-22T16:03:13;3.95;;;3.42;;
45762;SDS011;37512;52.408;13.356;2023-06-22T16:07:15;5.53;;;4.03;;
45762;SDS011;37512;52.408;13.356;2023-06-22T16:11:16;5.07;;;3.40;;
45762;SDS011;37512;52.408;13.356;2023-06-22T16:15:18;4.07;;;3.20;;
45762;SDS011;37512;52.408;13.356;2023-06-22T16:19:19;5.07;;;4.55;;
45762;SDS011;37512;52.408;13.356;2023-06-22T16:23:21;6.57;;;4.05;;
45762;SDS011;37512;52.408;13.356;2023-06-22T16:27:22;7.00;;;3.70;;
45762;SDS011;37512;52.408;13.356;2023-06-22T16:31:25;6.13;;;3.35;;
45762;SDS011;37512;52.408;13.356;2023-06-22T16:35:28;11.20;;;4.18;;
45762;SDS011;37512;52.408;13.356;2023-06-22T16:39:30;5.18;;;3.47;;
45762;SDS011;37512;52.408;13.356;2023-06-22T16:43:31;4.43;;;3.80;;
45762;SDS011;37512;52.408;13.356;2023-06-22T16:47:33;5.43;;;3.60;;
45762;SDS011;37512;52.408;13.356;2023-06-22T16:51:36;4.78;;;4.10;;
45762;SDS011;37512;52.408;13.356;2023-06-22T16:55:38;4.05;;;3.65;;
45762;SDS011;37512;52.408;13.356;2023-06-22T16:59:41;6.00;;;4.30;;
45762;SDS011;37512;52.408;13.356;2023-06-22T17:03:43;4.97;;;4.10;;
45762;SDS011;37512;52.408;13.356;2023-06-22T17:07:52;6.32;;;3.83;;
45762;SDS011;37512;52.408;13.356;2023-06-22T17:11:54;4.80;;;4.00;;
45762;SDS011;37512;52.408;13.356;2023-06-22T17:15:58;4.50;;;4.05;;
45762;SDS011;37512;52.408;13.356;2023-06-22T17:20:02;7.22;;;4.60;;
45762;SDS011;37512;52.408;13.356;2023-06-22T17:24:05;4.85;;;3.70;;
45762;SDS011;37512;52.408;13.356;2023-06-22T17:28:07;5.63;;;3.67;;
45762;SDS011;37512;52.408;13.356;2023-06-22T17:32:08;6.65;;;3.72;;
45762;SDS011;37512;52.408;13.356;2023-06-22T17:36:11;5.18;;;4.30;;
45762;SDS011;37512;52.408;13.356;2023-06-22T17:40:15;6.32;;;4.40;;
45762;SDS011;37512;52.408;13.356;2023-06-22T17:44:21;5.00;;;4.50;;
45762;SDS011;37512;52.408;13.356;2023-06-22T17:48:24;5.45;;;3.60;;
45762;SDS011;37512;52.408;13.356;2023-06-22T17:52:26;6.05;;;3.85;;
45762;SDS011;37512;52.408;13.356;2023-06-22T17:56:28;5.82;;;4.00;;
45762;SDS011;37512;52.408;13.356;2023-06-22T18:00:30;5.93;;;4.20;;
45762;SDS011;37512;52.408;13.356;2023-06-22T18:04:32;5.22;;;4.38;;
45762;SDS011;37512;52.408;13.356;2023-06-22T18:08:34;5.10;;;3.95;;
45762;SDS011;37512;52.408;13.356;2023-06-22T18:12:37;8.05;;;4.05;;
45762;SDS011;37512;52.408;13.356;2023-06-22T18:16:40;5.05;;;4.35;;
45762;SDS011;37512;52.408;13.356;2023-06-22T18:20:45;5.07;;;3.78;;
45762;SDS011;37512;52.408;13.356;2023-06-22T18:24:51;7.57;;;4.72;;
45762;SDS011;37512;52.408;13.356;2023-06-22T18:28:56;5.45;;;4.15;;
45762;SDS011;37512;52.408;13.356;2023-06-22T18:32:58;6.05;;;5.45;;
45762;SDS011;37512;52.408;13.356;2023-06-22T18:37:00;6.45;;;4.82;;
45762;SDS011;37512;52.408;13.356;2023-06-22T18:41:05;5.43;;;4.20;;
45762;SDS011;37512;52.408;13.356;2023-06-22T18:45:21;6.28;;;4.88;;
45762;SDS011;37512;52.408;13.356;2023-06-22T18:53:34;6.25;;;5.20;;
45762;SDS011;37512;52.408;13.356;2023-06-22T18:57:35;11.65;;;4.50;;
45762;SDS011;37512;52.408;13.356;2023-06-22T19:01:38;10.40;;;5.25;;
45762;SDS011;37512;52.408;13.356;2023-06-22T19:05:40;7.20;;;4.35;;
45762;SDS011;37512;52.408;13.356;2023-06-22T19:09:44;5.47;;;4.30;;
45762;SDS011;37512;52.408;13.356;2023-06-22T19:14:25;7.10;;;4.97;;
45762;SDS011;37512;52.408;13.356;2023-06-22T19:18:33;5.32;;;4.18;;
45762;SDS011;37512;52.408;13.356;2023-06-22T19:23:22;8.15;;;4.53;;
45762;SDS011;37512;52.408;13.356;2023-06-22T19:27:07;6.60;;;5.75;;
45762;SDS011;37512;52.408;13.356;2023-06-22T19:31:08;5.60;;;4.53;;
45762;SDS011;37512;52.408;13.356;2023-06-22T19:35:10;6.75;;;4.50;;
45762;SDS011;37512;52.408;13.356;2023-06-22T19:39:13;7.82;;;4.07;;
45762;SDS011;37512;52.408;13.356;2023-06-22T19:43:15;4.93;;;4.10;;
45762;SDS011;37512;52.408;13.356;2023-06-22T19:47:19;5.70;;;4.07;;
45762;SDS011;37512;52.408;13.356;2023-06-22T19:51:21;5.55;;;4.40;;
45762;SDS011;37512;52.408;13.356;2023-06-22T19:55:23;6.07;;;4.60;;
45762;SDS011;37512;52.408;13.356;2023-06-22T19:59:25;6.95;;;4.30;;
45762;SDS011;37512;52.408;13.356;2023-06-22T20:03:28;7.43;;;5.95;;
45762;SDS011;37512;52.408;13.356;2023-06-22T20:07:35;6.47;;;4.82;;
45762;SDS011;37512;52.408;13.356;2023-06-22T20:11:38;7.20;;;4.72;;
45762;SDS011;37512;52.408;13.356;2023-06-22T20:15:42;6.68;;;4.57;;
45762;SDS011;37512;52.408;13.356;2023-06-22T20:19:44;8.32;;;5.80;;
45762;SDS011;37512;52.408;13.356;2023-06-22T20:23:46;8.60;;;4.97;;
45762;SDS011;37512;52.408;13.356;2023-06-22T20:27:51;7.32;;;4.13;;
45762;SDS011;37512;52.408;13.356;2023-06-22T20:32:09;10.98;;;5.95;;
45762;SDS011;37512;52.408;13.356;2023-06-22T20:40:17;9.30;;;6.00;;
45762;SDS011;37512;52.408;13.356;2023-06-22T20:44:19;8.95;;;6.97;;
45762;SDS011;37512;52.408;13.356;2023-06-22T20:48:21;15.35;;;7.90;;
45762;SDS011;37512;52.408;13.356;2023-06-22T20:52:38;7.70;;;6.13;;
45762;SDS011;37512;52.408;13.356;2023-06-22T20:56:43;12.75;;;7.18;;
45762;SDS011;37512;52.408;13.356;2023-06-22T21:00:46;45.70;;;9.80;;
45762;SDS011;37512;52.408;13.356;2023-06-22T21:04:48;14.25;;;8.90;;
45762;SDS011;37512;52.408;13.356;2023-06-22T21:08:50;16.77;;;10.73;;
45762;SDS011;37512;52.408;13.356;2023-06-22T21:12:52;16.85;;;10.85;;
45762;SDS011;37512;52.408;13.356;2023-06-22T21:16:53;14.77;;;10.73;;
45762;SDS011;37512;52.408;13.356;2023-06-22T21:20:57;13.88;;;10.20;;
45762;SDS011;37512;52.408;13.356;2023-06-22T21:25:04;53.47;;;13.63;;
45762;SDS011;37512;52.408;13.356;2023-06-22T21:29:10;34.97;;;14.32;;
45762;SDS011;37512;52.408;13.356;2023-06-22T21:33:11;24.33;;;13.25;;
45762;SDS011;37512;52.408;13.356;2023-06-22T21:37:13;19.92;;;13.85;;
45762;SDS011;37512;52.408;13.356;2023-06-22T21:41:15;13.50;;;10.88;;
45762;SDS011;37512;52.408;13.356;2023-06-22T21:45:16;14.50;;;9.82;;
45762;SDS011;37512;52.408;13.356;2023-06-22T21:49:21;18.20;;;12.07;;
45762;SDS011;37512;52.408;13.356;2023-06-22T21:53:22;17.23;;;14.38;;
45762;SDS011;37512;52.408;13.356;2023-06-22T21:57:28;17.98;;;15.07;;
45762;SDS011;37512;52.408;13.356;2023-06-22T22:01:30;20.25;;;14.38;;
45762;SDS011;37512;52.408;13.356;2023-06-22T22:05:31;25.08;;;17.80;;
45762;SDS011;37512;52.408;13.356;2023-06-22T22:09:33;21.55;;;18.05;;
45762;SDS011;37512;52.408;13.356;2023-06-22T22:13:35;25.92;;;19.65;;
45762;SDS011;37512;52.408;13.356;2023-06-22T22:17:38;22.67;;;19.52;;
45762;SDS011;37512;52.408;13.356;2023-06-22T22:21:39;24.40;;;20.92;;
45762;SDS011;37512;52.408;13.356;2023-06-22T22:25:41;29.13;;;19.48;;
45762;SDS011;37512;52.408;13.356;2023-06-22T22:29:45;22.63;;;19.25;;
45762;SDS011;37512;52.408;13.356;2023-06-22T22:33:47;20.67;;;18.42;;
45762;SDS011;37512;52.408;13.356;2023-06-22T22:37:50;21.10;;;18.08;;
45762;SDS011;37512;52.408;13.356;2023-06-22T22:41:52;20.35;;;17.02;;
45762;SDS011;37512;52.408;13.356;2023-06-22T22:45:53;20.05;;;16.67;;
45762;SDS011;37512;52.408;13.356;2023-06-22T22:49:55;23.05;;;17.15;;
45762;SDS011;37512;52.408;13.356;2023-06-22T22:53:57;21.45;;;16.80;;
45762;SDS011;37512;52.408;13.356;2023-06-22T22:57:58;17.13;;;15.32;;
45762;SDS011;37512;52.408;13.356;2023-06-22T23:02:00;17.48;;;13.95;;
45762;SDS011;37512;52.408;13.356;2023-06-22T23:06:02;18.63;;;14.40;;
45762;SDS011;37512;52.408;13.356;2023-06-22T23:10:04;16.55;;;14.10;;
45762;SDS011;37512;52.408;13.356;2023-06-22T23:14:09;16.98;;;13.48;;
45762;SDS011;37512;52.408;13.356;2023-06-22T23:18:11;13.77;;;12.23;;
45762;SDS011;37512;52.408;13.356;2023-06-22T23:22:12;14.00;;;12.43;;
45762;SDS011;37512;52.408;13.356;2023-06-22T23:26:14;15.82;;;13.25;;
45762;SDS011;37512;52.408;13.356;2023-06-22T23:30:18;16.08;;;11.52;;
45762;SDS011;37512;52.408;13.356;2023-06-22T23:34:20;13.07;;;11.02;;
45762;SDS011;37512;52.408;13.356;2023-06-22T23:38:22;16.02;;;12.57;;
45762;SDS011;37512;52.408;13.356;2023-06-22T23:42:24;17.17;;;13.07;;
45762;SDS011;37512;52.408;13.356;2023-06-22T23:46:26;15.20;;;13.07;;
45762;SDS011;37512;52.408;13.356;2023-06-22T23:50:32;20.05;;;11.40;;
45762;SDS011;37512;52.408;13.356;2023-06-22T23:54:33;15.23;;;12.55;;
45762;SDS011;37512;52.408;13.356;2023-06-22T23:58:35;14.18;;;12.68;;
